aviador You're here:

YPPH Decoded Metar

PERTH in AUSTRALIA
Report Time2017-10-22 06:00:00
UTC Time2017-10-22 06:36:58
Flight Rules vfr VFR
Wind020° at 07 kt
W.Decomp.*RWY 03: 6.9 kt HW 1 kt LCW
RWY 06: 5.5 kt HW 4.3 kt LCW
W.Rank020° ranks 12
Current wind is above 020° avg. (6.9)
Visibility9999 m
Phenomena:N/A
Clouds:N/A
Expected CloudBase > 5,600 ft AGL from Temp-Dew spread
CeilingNone
Temp27°C (ISA +12)
Dew Point13°C (42% RH)
Heat Index27.0°C
AAT25.4°C
QNH1010 hPa
Density Alt1,739 ft
Elevation43 ft
Report Wrong Elevation
Raw Report
METAR YPPH 220600Z 02007KT CAVOK 27/13 Q1010
NOSIG=

Extra information for YPPH:More info

Metar Taf Metar & Taf Last 4 Metars F.Rules Stats Wind Profile Meteogram Temp Stats Airport Information Weather charts Add Link Nearby VenuesMetar ALERT Operation Metar Decoded Social comments